Time;durP1;ratioP1;P1;durP2;ratioP2;P2;SDS_P1;SDS_P2;PMS_P1;PMS_P2;Temp;Humidity;BMP_temperature;BMP_pressure;BME280_temperature;BME280_humidity;BME280_pressure;Samples;Min_cycle;Max_cycle;Signal;HPM_P1;HPM_P2
2021/12/07 09:06:06;;;;;;;13.77;4.40;;;;;;;;;;6217403;22;20507;-78
2021/12/07 10:22:53;;;;;;;4.70;4.30;;;;;;;;;;6257296;22;19926;-82
2021/12/07 10:25:27;;;;;;;5.90;3.88;;;;;;;;;;6216800;23;20032;-79
2021/12/07 10:27:52;;;;;;;4.40;3.97;;;;;;;;;;6216476;23;20016;-79
2021/12/07 10:30:21;;;;;;;4.28;3.83;;;;;;;;;;6194386;23;20001;-78
2021/12/07 10:33:05;;;;;;;4.72;4.32;;;;;;;;;;6186371;23;20001;-80
2021/12/07 10:35:35;;;;;;;5.43;3.92;;;;;;;;;;6186404;23;20039;-77
2021/12/07 10:38:12;;;;;;;4.25;3.88;;;;;;;;;;6186287;23;20128;-80
2021/12/07 10:40:58;;;;;;;4.70;4.30;;;;;;;;;;6186000;23;20005;-78
2021/12/07 10:43:59;;;;;;;3.72;3.42;;;;;;;;;;6186311;23;20325;-85
2021/12/07 10:46:41;;;;;;;3.97;3.67;;;;;;;;;;6065848;23;20108;-80
2021/12/07 10:49:20;;;;;;;5.47;3.78;;;;;;;;;;6174045;23;20076;-81
2021/12/07 10:52:20;;;;;;;5.35;4.05;;;;;;;;;;6159313;23;20009;-80
2021/12/07 10:54:50;;;;;;;4.32;3.80;;;;;;;;;;6186131;23;20005;-81
2021/12/07 10:57:23;;;;;;;3.50;3.13;;;;;;;;;;6185969;23;20005;-80
2021/12/07 10:59:55;;;;;;;3.45;3.15;;;;;;;;;;6185876;23;20012;-79
2021/12/07 11:02:22;;;;;;;3.30;3.00;;;;;;;;;;6185992;23;20005;-81
2021/12/07 11:04:49;;;;;;;3.35;2.60;;;;;;;;;;6186229;23;20008;-80
2021/12/07 11:07:22;;;;;;;3.22;2.80;;;;;;;;;;6186061;23;20005;-82
2021/12/07 11:09:55;;;;;;;5.22;3.63;;;;;;;;;;6186156;23;20013;-81
2021/12/07 11:12:24;;;;;;;3.30;3.00;;;;;;;;;;6186080;23;20075;-80
2021/12/07 11:14:53;;;;;;;4.63;3.03;;;;;;;;;;6159466;23;20009;-80
2021/12/07 11:17:34;;;;;;;3.35;2.92;;;;;;;;;;6159453;23;20333;-81
2021/12/07 11:20:03;;;;;;;4.97;3.38;;;;;;;;;;6185822;23;20080;-81
2021/12/07 11:22:34;;;;;;;4.30;3.30;;;;;;;;;;6185683;23;20032;-79
2021/12/07 11:25:03;;;;;;;3.50;3.00;;;;;;;;;;6186322;23;20005;-78
2021/12/07 11:30:20;;;;;;;3.60;2.72;;;;;;;;;;6186580;23;20376;-78
2021/12/07 11:32:55;;;;;;;3.85;2.90;;;;;;;;;;6187969;23;20432;-79
2021/12/07 11:35:26;;;;;;;2.58;2.30;;;;;;;;;;6188102;23;20383;-78
2021/12/07 11:37:55;;;;;;;3.38;2.58;;;;;;;;;;6188348;23;20004;-80
2021/12/07 11:40:36;;;;;;;3.30;1.98;;;;;;;;;;6187760;23;20336;-81
2021/12/07 11:43:02;;;;;;;2.58;2.03;;;;;;;;;;6188025;23;20088;-82
2021/12/07 11:45:31;;;;;;;2.08;1.83;;;;;;;;;;6188287;23;20005;-79
2021/12/07 11:48:00;;;;;;;3.08;2.28;;;;;;;;;;6187952;23;20008;-79
2021/12/07 11:50:32;;;;;;;3.05;2.70;;;;;;;;;;6187666;23;20001;-78
2021/12/07 11:53:22;;;;;;;2.97;2.40;;;;;;;;;;6187758;23;20005;-78
2021/12/07 11:55:52;;;;;;;3.70;2.88;;;;;;;;;;6187724;23;20011;-77
2021/12/07 11:58:19;;;;;;;6.13;2.88;;;;;;;;;;6187591;23;20439;-78
2021/12/07 12:00:51;;;;;;;3.50;2.67;;;;;;;;;;6187786;23;20005;-78
2021/12/07 12:03:18;;;;;;;4.90;2.72;;;;;;;;;;6187611;23;20009;-77
2021/12/07 12:05:46;;;;;;;3.47;2.80;;;;;;;;;;6187718;23;20005;-78
2021/12/07 12:08:14;;;;;;;2.72;2.35;;;;;;;;;;6187682;23;19997;-79
2021/12/07 12:10:44;;;;;;;4.43;2.63;;;;;;;;;;6187845;23;20009;-78
2021/12/07 12:13:21;;;;;;;3.13;2.20;;;;;;;;;;6161130;23;20005;-78
2021/12/07 12:16:10;;;;;;;4.63;2.10;;;;;;;;;;6187539;23;20319;-77
2021/12/07 12:18:58;;;;;;;2.40;1.90;;;;;;;;;;6160833;23;20048;-77
2021/12/07 12:21:49;;;;;;;2.28;1.88;;;;;;;;;;6160888;23;20052;-78
2021/12/07 12:24:25;;;;;;;2.53;1.80;;;;;;;;;;6187408;23;20041;-77
2021/12/07 12:27:25;;;;;;;2.90;2.25;;;;;;;;;;6187421;23;20008;-78
2021/12/07 12:29:53;;;;;;;2.53;1.75;;;;;;;;;;6187165;23;20005;-79
2021/12/07 12:32:29;;;;;;;2.42;1.90;;;;;;;;;;6187472;23;20055;-80
2021/12/07 12:34:56;;;;;;;3.33;2.28;;;;;;;;;;6187539;23;20413;-77
2021/12/07 12:37:25;;;;;;;3.85;2.03;;;;;;;;;;6187084;23;20001;-79
2021/12/07 12:40:12;;;;;;;2.63;2.00;;;;;;;;;;6187206;23;20048;-80
2021/12/07 12:42:46;;;;;;;5.97;3.55;;;;;;;;;;6186927;23;20004;-83
2021/12/07 12:45:31;;;;;;;3.22;1.90;;;;;;;;;;6187420;23;20025;-78
2021/12/07 12:48:08;;;;;;;1.55;1.40;;;;;;;;;;6187149;23;20001;-80
2021/12/07 17:15:54;;;;;;;2.15;1.42;;;;;;;;;;6258016;22;20039;-81
2021/12/07 17:18:19;;;;;;;2.45;1.77;;;;;;;;;;6191193;23;20095;-76
2021/12/07 17:20:48;;;;;;;3.83;1.98;;;;;;;;;;6217610;23;20430;-76
2021/12/07 17:23:15;;;;;;;6.38;3.58;;;;;;;;;;6197485;23;20044;-77
2021/12/07 17:25:41;;;;;;;6.95;3.03;;;;;;;;;;6187108;23;20008;-76
2021/12/07 17:28:06;;;;;;;4.22;2.20;;;;;;;;;;6187318;23;20005;-77
2021/12/07 17:30:33;;;;;;;4.85;2.25;;;;;;;;;;6160991;23;20063;-76
2021/12/07 17:32:59;;;;;;;4.30;2.53;;;;;;;;;;6187266;23;20005;-79
2021/12/07 17:35:25;;;;;;;5.07;1.45;;;;;;;;;;6187193;23;20035;-77
2021/12/07 17:37:51;;;;;;;11.55;8.55;;;;;;;;;;6187132;23;20005;-81
2021/12/07 17:40:20;;;;;;;8.48;5.68;;;;;;;;;;6187121;23;20020;-80
2021/12/07 17:42:47;;;;;;;6.37;2.80;;;;;;;;;;6186956;23;20005;-79
2021/12/07 17:45:13;;;;;;;5.28;2.63;;;;;;;;;;6187411;23;20487;-78
2021/12/07 17:47:40;;;;;;;3.92;2.80;;;;;;;;;;6187182;23;20001;-79
2021/12/07 17:50:08;;;;;;;8.85;3.35;;;;;;;;;;6187123;23;20063;-78
2021/12/07 17:52:33;;;;;;;11.80;4.30;;;;;;;;;;6186926;23;20009;-79
2021/12/07 17:55:00;;;;;;;5.78;2.67;;;;;;;;;;6187131;23;20055;-79
2021/12/07 17:57:26;;;;;;;2.85;2.33;;;;;;;;;;6186869;23;20008;-76
2021/12/07 17:59:51;;;;;;;2.22;1.35;;;;;;;;;;6186678;23;20028;-80
2021/12/07 18:02:19;;;;;;;7.70;3.88;;;;;;;;;;6160122;23;20051;-79
2021/12/07 18:04:44;;;;;;;7.22;4.07;;;;;;;;;;6186473;23;20035;-78
2021/12/07 18:07:10;;;;;;;4.25;2.88;;;;;;;;;;6186523;23;19997;-80
2021/12/07 18:09:35;;;;;;;5.07;2.90;;;;;;;;;;6186560;23;20001;-78
2021/12/07 18:12:01;;;;;;;6.25;3.30;;;;;;;;;;6186863;23;20041;-78
2021/12/07 18:14:26;;;;;;;6.63;3.38;;;;;;;;;;6186852;23;20104;-78
2021/12/07 18:16:54;;;;;;;6.07;3.28;;;;;;;;;;6186463;23;20064;-78
2021/12/07 18:19:20;;;;;;;3.42;2.22;;;;;;;;;;6186324;23;20005;-78
2021/12/07 18:21:46;;;;;;;4.32;2.80;;;;;;;;;;6186180;23;20001;-78
2021/12/07 18:24:12;;;;;;;2.92;2.35;;;;;;;;;;6186669;23;20012;-79
2021/12/07 18:26:37;;;;;;;5.65;2.60;;;;;;;;;;6185997;23;20004;-79
2021/12/07 18:29:04;;;;;;;5.53;3.20;;;;;;;;;;6186078;23;20076;-79
2021/12/07 18:31:30;;;;;;;7.50;3.67;;;;;;;;;;6186345;23;20011;-77
2021/12/07 18:33:55;;;;;;;3.65;2.53;;;;;;;;;;6186091;23;20040;-84
2021/12/07 18:36:21;;;;;;;3.95;2.40;;;;;;;;;;6185404;23;20001;-77
2021/12/07 18:38:48;;;;;;;5.43;2.92;;;;;;;;;;6186405;23;20416;-80
2021/12/07 18:41:21;;;;;;;2.80;2.20;;;;;;;;;;6186111;23;20087;-78
2021/12/07 18:43:46;;;;;;;6.57;2.92;;;;;;;;;;6186207;23;20005;-80
2021/12/07 18:46:12;;;;;;;2.97;2.67;;;;;;;;;;6186228;23;20012;-80
2021/12/07 18:48:39;;;;;;;8.98;4.45;;;;;;;;;;6186026;23;20005;-80
2021/12/07 18:51:08;;;;;;;4.40;3.20;;;;;;;;;;6186320;23;20047;-81
2021/12/07 18:53:34;;;;;;;5.90;3.15;;;;;;;;;;6186144;23;20424;-79
2021/12/07 18:55:59;;;;;;;6.18;3.70;;;;;;;;;;6185979;23;20088;-81
2021/12/07 18:58:24;;;;;;;7.75;4.35;;;;;;;;;;6186177;23;20337;-79
2021/12/07 19:00:53;;;;;;;8.55;5.07;;;;;;;;;;6186007;23;20028;-80
2021/12/07 19:03:20;;;;;;;8.40;4.88;;;;;;;;;;6185793;23;20005;-79
2021/12/07 19:05:46;;;;;;;8.68;4.78;;;;;;;;;;6186004;23;20017;-80
2021/12/07 19:08:13;;;;;;;11.32;5.85;;;;;;;;;;6186252;23;20005;-80
2021/12/07 19:10:41;;;;;;;10.95;6.63;;;;;;;;;;6186419;23;20012;-80
2021/12/07 19:13:11;;;;;;;10.32;6.07;;;;;;;;;;6159497;23;20005;-80
2021/12/07 19:15:37;;;;;;;13.45;5.88;;;;;;;;;;6186023;23;20013;-80
2021/12/07 19:18:03;;;;;;;7.90;5.38;;;;;;;;;;6186056;23;20001;-79
2021/12/07 19:20:29;;;;;;;9.40;5.75;;;;;;;;;;6186269;23;20009;-80
2021/12/07 19:22:57;;;;;;;4.90;3.17;;;;;;;;;;6159761;23;20009;-80
2021/12/07 19:25:24;;;;;;;9.75;5.60;;;;;;;;;;6186210;23;20005;-80
2021/12/07 19:27:49;;;;;;;8.20;5.15;;;;;;;;;;6186191;23;20009;-79
2021/12/07 19:30:17;;;;;;;6.85;4.35;;;;;;;;;;6159616;23;20092;-83
2021/12/07 19:32:47;;;;;;;8.02;4.40;;;;;;;;;;6159301;23;20458;-80
2021/12/07 19:35:19;;;;;;;8.50;5.63;;;;;;;;;;6185836;23;20029;-79
2021/12/07 19:37:45;;;;;;;9.55;7.35;;;;;;;;;;6185933;23;20005;-79
2021/12/07 19:40:12;;;;;;;17.23;8.13;;;;;;;;;;6159362;23;20005;-81
2021/12/07 19:42:38;;;;;;;6.63;4.55;;;;;;;;;;6159248;23;20400;-82
2021/12/07 19:45:09;;;;;;;7.95;3.88;;;;;;;;;;6185563;23;20016;-81
2021/12/07 19:47:35;;;;;;;5.25;3.33;;;;;;;;;;6185732;23;20009;-79
2021/12/07 19:50:03;;;;;;;7.68;4.53;;;;;;;;;;6185547;23;20031;-79
2021/12/07 19:52:31;;;;;;;6.68;3.72;;;;;;;;;;6187348;23;20005;-79
2021/12/07 19:54:57;;;;;;;8.38;4.22;;;;;;;;;;6161350;23;20398;-79
2021/12/07 19:57:22;;;;;;;10.63;5.28;;;;;;;;;;6187712;23;20029;-79
2021/12/07 19:59:48;;;;;;;8.45;4.80;;;;;;;;;;6187680;23;20528;-79
2021/12/07 20:02:15;;;;;;;6.05;3.90;;;;;;;;;;6187911;23;20056;-80
2021/12/07 20:04:41;;;;;;;7.60;4.93;;;;;;;;;;6187747;23;20440;-79
2021/12/07 20:07:10;;;;;;;12.82;5.40;;;;;;;;;;6187818;23;20447;-80
2021/12/07 20:09:40;;;;;;;7.70;4.88;;;;;;;;;;6161084;23;20116;-79
2021/12/07 20:12:08;;;;;;;6.68;4.60;;;;;;;;;;6187438;23;20009;-79
2021/12/07 20:14:38;;;;;;;7.43;4.25;;;;;;;;;;6187509;23;20013;-79
2021/12/07 20:17:04;;;;;;;8.98;5.60;;;;;;;;;;6187338;23;20028;-79
2021/12/07 20:19:51;;;;;;;10.02;5.43;;;;;;;;;;6187610;23;20005;-79
2021/12/07 20:22:23;;;;;;;8.23;4.85;;;;;;;;;;6187405;23;20005;-79
2021/12/07 20:24:48;;;;;;;8.68;4.72;;;;;;;;;;6187339;23;20447;-79
2021/12/07 20:27:14;;;;;;;5.55;3.75;;;;;;;;;;6187596;23;20005;-79
2021/12/07 20:29:40;;;;;;;11.93;4.95;;;;;;;;;;6187607;23;20333;-79
2021/12/07 20:32:06;;;;;;;13.57;7.90;;;;;;;;;;6187340;23;20009;-79
2021/12/07 20:34:33;;;;;;;15.45;8.13;;;;;;;;;;6187473;23;20064;-77
2021/12/07 20:37:00;;;;;;;8.18;4.43;;;;;;;;;;6187429;23;20097;-80
2021/12/07 20:39:27;;;;;;;6.95;3.80;;;;;;;;;;6161033;23;20093;-80
2021/12/07 20:41:54;;;;;;;8.45;5.63;;;;;;;;;;6187155;23;20043;-79
2021/12/07 20:44:20;;;;;;;10.18;5.88;;;;;;;;;;6187307;23;20084;-80
2021/12/07 20:46:49;;;;;;;21.33;14.40;;;;;;;;;;6187364;23;20001;-80
2021/12/07 20:49:15;;;;;;;11.20;6.65;;;;;;;;;;6187416;23;20005;-80
2021/12/07 20:51:41;;;;;;;9.88;5.85;;;;;;;;;;6187097;23;20032;-80
2021/12/07 20:54:07;;;;;;;9.05;5.55;;;;;;;;;;6187270;23;20004;-80
2021/12/07 20:56:33;;;;;;;8.35;5.43;;;;;;;;;;6187492;23;20009;-80
2021/12/07 20:58:59;;;;;;;8.93;5.35;;;;;;;;;;6187214;23;20024;-80
2021/12/07 21:01:26;;;;;;;8.32;5.25;;;;;;;;;;6187180;23;20109;-80
2021/12/07 21:03:51;;;;;;;7.80;4.72;;;;;;;;;;6186659;23;20012;-79
2021/12/07 21:06:18;;;;;;;6.22;4.00;;;;;;;;;;6186639;23;20005;-79
2021/12/07 21:08:43;;;;;;;7.70;4.55;;;;;;;;;;6186755;23;20025;-80
2021/12/07 21:11:13;;;;;;;10.05;5.80;;;;;;;;;;6186886;23;20052;-81
2021/12/07 21:13:39;;;;;;;134.57;39.53;;;;;;;;;;6186945;23;20381;-81
2021/12/07 21:16:08;;;;;;;77.72;27.42;;;;;;;;;;6187116;23;20429;-80
2021/12/07 21:18:35;;;;;;;41.55;15.88;;;;;;;;;;6186730;23;20420;-81
2021/12/07 21:21:00;;;;;;;9.77;6.43;;;;;;;;;;6186982;23;20028;-81
2021/12/07 21:23:25;;;;;;;11.52;6.65;;;;;;;;;;6186867;23;20341;-81
2021/12/07 21:25:51;;;;;;;8.10;5.45;;;;;;;;;;6187503;23;20320;-81
2021/12/07 21:28:16;;;;;;;8.10;5.47;;;;;;;;;;6186728;23;20412;-82
2021/12/07 21:30:42;;;;;;;11.27;5.30;;;;;;;;;;6187168;23;20056;-80
2021/12/07 21:33:08;;;;;;;10.82;5.53;;;;;;;;;;6186604;23;20009;-80
2021/12/07 21:35:34;;;;;;;11.15;5.82;;;;;;;;;;6186854;23;20009;-80
2021/12/07 21:37:59;;;;;;;8.10;4.90;;;;;;;;;;6186598;23;20030;-80
2021/12/07 21:40:25;;;;;;;6.50;4.40;;;;;;;;;;6186899;23;20368;-80
2021/12/07 21:42:51;;;;;;;4.63;3.50;;;;;;;;;;6186629;23;20016;-80
2021/12/07 21:45:18;;;;;;;4.85;3.60;;;;;;;;;;6187017;23;19997;-80
2021/12/07 21:47:45;;;;;;;6.15;4.40;;;;;;;;;;6186673;23;20009;-80
2021/12/07 21:50:14;;;;;;;7.90;4.30;;;;;;;;;;6186789;23;20443;-81
2021/12/07 21:52:40;;;;;;;9.18;4.10;;;;;;;;;;6186503;23;20328;-80
2021/12/07 21:55:11;;;;;;;5.32;3.25;;;;;;;;;;6186619;23;20037;-81
2021/12/07 21:57:38;;;;;;;7.00;3.70;;;;;;;;;;6186625;23;20005;-79
2021/12/07 22:00:07;;;;;;;4.75;3.65;;;;;;;;;;6186790;23;20155;-80
2021/12/07 22:02:33;;;;;;;4.32;3.13;;;;;;;;;;6186404;23;20009;-80
2021/12/07 22:04:58;;;;;;;5.97;4.07;;;;;;;;;;6186572;23;20012;-79
2021/12/07 22:07:24;;;;;;;7.88;4.10;;;;;;;;;;6186572;23;20005;-80
2021/12/07 22:09:49;;;;;;;8.73;4.20;;;;;;;;;;6186659;23;20309;-80
2021/12/07 22:12:15;;;;;;;6.97;3.65;;;;;;;;;;6186562;23;20337;-80
2021/12/07 22:14:40;;;;;;;5.30;3.50;;;;;;;;;;6185981;23;20005;-80
2021/12/07 22:17:06;;;;;;;4.88;3.25;;;;;;;;;;6186054;23;20013;-80
2021/12/07 22:19:31;;;;;;;3.17;2.42;;;;;;;;;;6186352;23;20448;-80
2021/12/07 22:21:57;;;;;;;4.05;2.90;;;;;;;;;;6185952;23;20336;-80
2021/12/07 22:24:22;;;;;;;3.72;2.40;;;;;;;;;;6186938;23;20008;-80
2021/12/07 22:26:48;;;;;;;4.97;2.53;;;;;;;;;;6186646;23;20001;-80
2021/12/07 22:29:15;;;;;;;3.88;2.25;;;;;;;;;;6186481;23;20005;-80
2021/12/07 22:31:41;;;;;;;3.10;2.50;;;;;;;;;;6186221;23;20012;-80
